Time;durP1;ratioP1;P1;durP2;ratioP2;P2;SDS_P1;SDS_P2;PMS_P1;PMS_P2;Temp;Humidity;BMP_temperature;BMP_pressure;BME280_temperature;BME280_humidity;BME280_pressure;Samples;Min_cycle;Max_cycle;Signal;HPM_P1;HPM_P2
2022/10/27 00:01:00;;;;;;;14.07;5.90;;;13.20;1.00;;;;;;5092855;28;20394;-52
2022/10/27 00:03:25;;;;;;;18.33;7.20;;;13.20;1.00;;;;;;5092131;28;20382;-52
2022/10/27 00:05:51;;;;;;;16.92;6.32;;;13.20;1.00;;;;;;5093066;28;20946;-54
2022/10/27 00:08:19;;;;;;;13.73;6.13;;;13.20;1.00;;;;;;5092187;28;20428;-51
2022/10/27 00:10:55;;;;;;;18.63;6.88;;;13.20;1.00;;;;;;5093229;28;20389;-52
2022/10/27 00:13:20;;;;;;;15.40;5.90;;;13.20;1.00;;;;;;5089733;28;20413;-52
2022/10/27 00:15:58;;;;;;;18.77;6.40;;;13.20;1.00;;;;;;5094524;28;20444;-52
2022/10/27 00:18:24;;;;;;;13.10;6.85;;;13.30;50.50;;;;;;5089721;28;20751;-52
2022/10/27 00:21:10;;;;;;;14.60;6.80;;;13.30;49.40;;;;;;5092601;28;20439;-52
2022/10/27 00:23:37;;;;;;;15.73;7.57;;;13.20;80.00;;;;;;5088644;28;20773;-52
2022/10/27 00:26:03;;;;;;;14.90;6.30;;;13.20;91.70;;;;;;5092579;28;20431;-52
2022/10/27 00:28:29;;;;;;;15.35;6.55;;;13.10;76.20;;;;;;5092076;28;20378;-52
2022/10/27 00:31:27;;;;;;;11.07;5.33;;;13.00;14.20;;;;;;5092200;28;20388;-52
2022/10/27 00:33:53;;;;;;;14.90;5.32;;;12.90;1.00;;;;;;5035488;28;20425;-52
2022/10/27 00:36:23;;;;;;;17.07;6.00;;;12.70;1.00;;;;;;5091550;28;20428;-52
2022/10/27 00:38:53;;;;;;;17.05;6.45;;;12.60;1.00;;;;;;5092487;28;20370;-52
2022/10/27 00:41:31;;;;;;;13.25;7.00;;;12.60;17.30;;;;;;5089102;28;20382;-52
2022/10/27 00:43:59;;;;;;;11.93;5.90;;;12.60;22.80;;;;;;5089383;28;20375;-52
2022/10/27 00:46:41;;;;;;;15.32;6.30;;;12.60;28.00;;;;;;5092734;28;20396;-52
2022/10/27 00:49:13;;;;;;;13.13;5.57;;;12.70;34.90;;;;;;5090349;28;20793;-52
2022/10/27 00:51:49;;;;;;;12.88;5.38;;;12.60;39.40;;;;;;5089463;28;20382;-52
2022/10/27 00:54:17;;;;;;;14.05;6.55;;;12.60;26.40;;;;;;5091611;28;20414;-55
2022/10/27 00:56:46;;;;;;;16.27;6.77;;;12.80;48.80;;;;;;5091434;28;20890;-52
2022/10/27 00:59:13;;;;;;;13.57;6.80;;;12.70;57.10;;;;;;5091553;28;20393;-52
2022/10/27 01:01:39;;;;;;;15.05;5.82;;;12.80;99.90;;;;;;5090622;28;20489;-52
2022/10/27 01:04:05;;;;;;;17.50;6.00;;;12.60;78.60;;;;;;5091504;28;20401;-52
2022/10/27 01:06:33;;;;;;;16.57;6.13;;;12.70;84.40;;;;;;5090622;28;20879;-52
2022/10/27 01:08:59;;;;;;;13.40;5.50;;;12.60;48.30;;;;;;5091436;28;20385;-53
2022/10/27 01:11:24;;;;;;;18.27;6.80;;;12.50;38.10;;;;;;5091411;28;20382;-51
2022/10/27 01:13:50;;;;;;;13.30;6.43;;;12.40;8.70;;;;;;5091176;28;20385;-52
2022/10/27 01:16:39;;;;;;;14.38;6.70;;;12.50;64.70;;;;;;5092447;28;20886;-54
2022/10/27 01:19:50;;;;;;;14.03;7.03;;;12.50;89.60;;;;;;5097051;28;20400;-52
2022/10/27 01:22:27;;;;;;;16.98;6.57;;;12.60;99.90;;;;;;5090425;28;20877;-54
2022/10/27 01:25:14;;;;;;;15.30;7.40;;;12.70;98.10;;;;;;5090973;28;20426;-52
2022/10/27 01:28:17;;;;;;;16.17;7.75;;;12.60;98.40;;;;;;5089494;28;20870;-52
2022/10/27 01:30:59;;;;;;;17.07;7.30;;;12.50;99.90;;;;;;5089060;28;20472;-52
2022/10/27 01:33:50;;;;;;;14.95;7.32;;;12.50;99.90;;;;;;5088398;28;20413;-52
2022/10/27 01:36:26;;;;;;;13.45;7.13;;;12.50;99.90;;;;;;5070129;28;20454;-52
2022/10/27 01:39:04;;;;;;;16.63;7.43;;;12.40;99.90;;;;;;5090976;28;20389;-52
2022/10/27 01:41:39;;;;;;;15.05;6.75;;;12.40;99.90;;;;;;5090134;28;20470;-52
2022/10/27 01:44:12;;;;;;;20.20;7.80;;;12.40;99.90;;;;;;5089054;28;20902;-52
2022/10/27 01:46:39;;;;;;;17.10;6.53;;;12.50;99.90;;;;;;5089776;28;20384;-52
2022/10/27 01:49:07;;;;;;;15.00;6.72;;;12.30;99.90;;;;;;5090392;28;20717;-52
2022/10/27 01:51:32;;;;;;;15.52;6.35;;;12.30;35.60;;;;;;5089761;28;20414;-52
2022/10/27 01:53:58;;;;;;;15.27;7.15;;;12.20;5.60;;;;;;5090632;28;20413;-52
2022/10/27 01:56:39;;;;;;;18.73;8.75;;;12.10;40.70;;;;;;5089983;28;20421;-52
2022/10/27 01:59:23;;;;;;;16.55;8.23;;;12.00;99.90;;;;;;5089153;28;20428;-52
2022/10/27 02:01:58;;;;;;;19.00;8.95;;;12.10;99.90;;;;;;5089481;28;20414;-52
2022/10/27 02:04:29;;;;;;;24.13;8.30;;;12.10;99.90;;;;;;5088123;28;20887;-52
2022/10/27 02:07:06;;;;;;;21.55;9.10;;;12.20;99.90;;;;;;5090552;28;20400;-52
2022/10/27 02:09:44;;;;;;;19.38;7.57;;;12.10;99.90;;;;;;5089863;28;20382;-53
2022/10/27 02:12:30;;;;;;;17.58;8.40;;;12.10;99.90;;;;;;5089923;28;20389;-52
2022/10/27 02:15:00;;;;;;;22.40;8.27;;;12.10;99.90;;;;;;5090327;28;20386;-52
2022/10/27 02:17:30;;;;;;;19.27;8.73;;;12.10;99.90;;;;;;5090951;28;20386;-52
2022/10/27 02:19:58;;;;;;;15.07;7.85;;;12.20;99.90;;;;;;5090176;28;20378;-52
2022/10/27 02:22:27;;;;;;;21.65;8.57;;;12.10;99.90;;;;;;5089470;28;20440;-52
2022/10/27 02:24:53;;;;;;;14.95;7.28;;;12.10;99.90;;;;;;5090039;28;20378;-55
2022/10/27 02:27:47;;;;;;;15.25;7.50;;;12.10;99.90;;;;;;5089795;28;20439;-52
2022/10/27 02:30:14;;;;;;;16.38;8.18;;;12.10;99.90;;;;;;5082925;28;20417;-52
2022/10/27 02:32:40;;;;;;;14.37;7.80;;;12.10;99.90;;;;;;5089117;28;20409;-52
2022/10/27 02:35:09;;;;;;;17.10;8.07;;;12.10;99.90;;;;;;5089842;28;20422;-52
2022/10/27 02:37:39;;;;;;;18.90;7.93;;;12.10;99.90;;;;;;5089366;28;20405;-52
2022/10/27 02:40:06;;;;;;;19.20;7.80;;;12.20;99.90;;;;;;5089629;28;20378;-52
2022/10/27 02:42:31;;;;;;;17.67;8.50;;;12.10;99.90;;;;;;5089033;28;20401;-52
2022/10/27 02:44:57;;;;;;;17.90;7.80;;;12.10;99.90;;;;;;5089930;28;20727;-52
2022/10/27 02:47:22;;;;;;;18.13;7.57;;;12.20;99.90;;;;;;5088651;28;20903;-52
2022/10/27 02:49:48;;;;;;;15.40;7.00;;;12.10;99.90;;;;;;5089944;28;20378;-52
2022/10/27 02:52:14;;;;;;;19.98;8.65;;;12.10;99.90;;;;;;5089680;28;20402;-52
2022/10/27 02:54:41;;;;;;;17.00;7.72;;;12.20;99.90;;;;;;5088885;28;20377;-52
2022/10/27 02:57:07;;;;;;;14.05;6.60;;;12.10;99.90;;;;;;5071280;28;20768;-52
2022/10/27 02:59:33;;;;;;;16.13;7.80;;;12.00;99.90;;;;;;5070557;28;20378;-52
2022/10/27 03:01:58;;;;;;;15.73;7.70;;;12.10;99.90;;;;;;5089920;28;20473;-52
2022/10/27 03:04:24;;;;;;;15.20;7.63;;;12.20;99.90;;;;;;5088362;28;20374;-52
2022/10/27 03:06:49;;;;;;;17.35;7.80;;;12.20;99.90;;;;;;5089719;28;20386;-52
2022/10/27 03:09:15;;;;;;;16.40;7.50;;;12.30;99.90;;;;;;5089398;28;20720;-52
2022/10/27 03:11:40;;;;;;;18.10;8.23;;;12.30;99.90;;;;;;5089266;28;20435;-51
2022/10/27 03:14:06;;;;;;;14.33;7.20;;;12.40;99.90;;;;;;5089708;28;20851;-52
2022/10/27 03:16:31;;;;;;;15.63;8.20;;;12.30;99.90;;;;;;5088858;28;20440;-52
2022/10/27 03:18:57;;;;;;;15.77;8.07;;;12.30;99.90;;;;;;5089042;28;20378;-51
2022/10/27 03:21:22;;;;;;;18.27;8.70;;;12.30;99.90;;;;;;5088791;28;20382;-52
2022/10/27 03:23:49;;;;;;;15.40;7.70;;;12.20;99.90;;;;;;5089635;28;20777;-52
2022/10/27 03:26:14;;;;;;;17.70;8.70;;;12.20;99.90;;;;;;5093321;28;20797;-52
2022/10/27 03:28:40;;;;;;;21.15;8.70;;;12.30;99.90;;;;;;5093116;28;20373;-52
2022/10/27 03:31:06;;;;;;;16.90;7.87;;;12.30;99.90;;;;;;5092995;28;20385;-52
2022/10/27 03:33:32;;;;;;;18.10;8.00;;;12.20;99.90;;;;;;5092995;28;20684;-52
2022/10/27 03:35:58;;;;;;;17.37;7.80;;;12.10;99.90;;;;;;5093820;28;20454;-52
2022/10/27 03:38:24;;;;;;;15.30;7.45;;;12.10;99.90;;;;;;5092638;28;20496;-52
2022/10/27 03:40:49;;;;;;;21.30;9.20;;;12.10;99.90;;;;;;5092811;28;20397;-56
2022/10/27 03:43:15;;;;;;;18.48;8.35;;;12.00;99.90;;;;;;5093717;28;20382;-55
2022/10/27 03:45:41;;;;;;;15.82;8.68;;;12.10;99.90;;;;;;5093843;28;20393;-52
2022/10/27 03:48:11;;;;;;;23.90;9.90;;;12.00;99.90;;;;;;5093502;28;20393;-52
2022/10/27 03:50:38;;;;;;;17.40;8.68;;;12.00;99.90;;;;;;5090445;28;20398;-51
2022/10/27 03:53:04;;;;;;;19.90;8.40;;;12.00;99.90;;;;;;5093264;28;20457;-52
2022/10/27 03:55:31;;;;;;;20.03;8.33;;;12.10;99.90;;;;;;5092212;28;20412;-52
2022/10/27 03:57:57;;;;;;;18.40;8.95;;;12.00;99.90;;;;;;5093409;28;20385;-52
2022/10/27 04:00:23;;;;;;;14.60;8.13;;;12.00;99.90;;;;;;5090109;28;20405;-52
2022/10/27 04:02:52;;;;;;;19.17;9.17;;;11.90;99.90;;;;;;5087911;28;20393;-51
2022/10/27 04:05:18;;;;;;;21.35;8.93;;;11.90;99.90;;;;;;5092315;28;20420;-55
2022/10/27 04:07:44;;;;;;;16.83;8.70;;;11.90;99.90;;;;;;5092473;28;20835;-51
2022/10/27 04:10:10;;;;;;;19.53;9.13;;;11.90;99.90;;;;;;5089733;28;20378;-52
2022/10/27 04:12:36;;;;;;;18.40;8.80;;;11.90;99.90;;;;;;5092107;28;21094;-51
2022/10/27 04:15:01;;;;;;;18.40;9.67;;;12.00;99.90;;;;;;5092248;28;20389;-51
2022/10/27 04:17:27;;;;;;;17.90;8.87;;;12.00;99.90;;;;;;5103405;28;20391;-52
2022/10/27 04:19:52;;;;;;;19.60;8.73;;;12.00;99.90;;;;;;5087917;28;20381;-52
2022/10/27 04:22:18;;;;;;;19.67;8.93;;;12.00;99.90;;;;;;5092199;28;20848;-55
2022/10/27 04:24:44;;;;;;;18.20;8.37;;;11.90;99.90;;;;;;5092212;28;20374;-52
2022/10/27 04:27:09;;;;;;;21.50;9.55;;;11.90;99.90;;;;;;5092621;28;20427;-51
2022/10/27 04:29:35;;;;;;;19.27;8.77;;;11.90;99.90;;;;;;5091258;28;21129;-52
2022/10/27 04:32:01;;;;;;;16.17;7.80;;;11.80;99.90;;;;;;5091841;28;20889;-52
2022/10/27 04:34:26;;;;;;;18.25;9.00;;;11.90;99.90;;;;;;5091686;28;20398;-52
2022/10/27 04:36:54;;;;;;;19.83;8.83;;;11.90;99.90;;;;;;5090986;28;20809;-52
2022/10/27 04:39:19;;;;;;;17.33;8.52;;;11.90;99.90;;;;;;5088663;28;20382;-55
2022/10/27 04:41:45;;;;;;;15.52;8.02;;;11.90;99.90;;;;;;5091804;28;20386;-52
2022/10/27 04:44:10;;;;;;;15.35;8.73;;;12.00;99.90;;;;;;5099317;28;20422;-53
2022/10/27 04:46:37;;;;;;;23.67;8.90;;;12.00;99.90;;;;;;5101053;28;20392;-53
2022/10/27 04:49:03;;;;;;;17.30;9.00;;;12.00;99.90;;;;;;5091686;28;20392;-52
2022/10/27 04:51:28;;;;;;;18.48;9.05;;;12.00;99.90;;;;;;5093996;28;20480;-61
2022/10/27 04:53:54;;;;;;;20.27;8.70;;;12.00;99.90;;;;;;5092484;28;20385;-60
2022/10/27 04:56:19;;;;;;;25.77;9.40;;;12.00;99.90;;;;;;5091382;28;20860;-62
2022/10/27 04:58:45;;;;;;;20.42;8.65;;;12.00;99.90;;;;;;5092437;28;20378;-60
2022/10/27 05:01:13;;;;;;;17.50;8.40;;;12.00;99.90;;;;;;5092325;28;20749;-60
2022/10/27 05:03:39;;;;;;;21.00;9.30;;;12.10;99.90;;;;;;5091381;28;20430;-60
2022/10/27 05:06:04;;;;;;;16.65;8.52;;;11.90;99.90;;;;;;5091782;28;20935;-60
2022/10/27 05:08:31;;;;;;;19.58;9.38;;;11.90;99.90;;;;;;5100941;28;20474;-60
2022/10/27 05:10:56;;;;;;;20.70;8.85;;;11.90;99.90;;;;;;5098051;28;20401;-59
2022/10/27 05:13:22;;;;;;;20.43;10.00;;;11.80;99.90;;;;;;5101666;28;20404;-60
2022/10/27 05:15:47;;;;;;;17.23;8.57;;;11.80;99.90;;;;;;5101982;28;20491;-60
2022/10/27 05:18:13;;;;;;;20.40;9.10;;;11.80;99.90;;;;;;5091721;28;20414;-60
2022/10/27 05:20:39;;;;;;;22.23;9.27;;;11.90;99.90;;;;;;5090877;28;21104;-60
2022/10/27 05:23:05;;;;;;;19.50;9.00;;;11.80;99.90;;;;;;5091063;28;20386;-60
2022/10/27 05:25:30;;;;;;;21.47;9.70;;;11.80;99.90;;;;;;5090271;28;20394;-60
2022/10/27 05:28:07;;;;;;;20.55;9.75;;;11.90;99.90;;;;;;5072847;28;20397;-60
2022/10/27 05:30:33;;;;;;;14.80;7.93;;;11.80;99.90;;;;;;5088977;28;20394;-60
2022/10/27 05:33:00;;;;;;;16.17;8.40;;;11.70;99.90;;;;;;5091295;28;20941;-59
2022/10/27 05:35:25;;;;;;;15.98;8.70;;;11.70;99.90;;;;;;5090330;28;20488;-52
2022/10/27 05:37:51;;;;;;;16.73;8.55;;;11.70;99.90;;;;;;5091250;28;20886;-52
2022/10/27 05:40:17;;;;;;;21.75;9.80;;;11.70;99.90;;;;;;5091437;28;20453;-52
2022/10/27 05:42:54;;;;;;;16.87;8.30;;;11.80;99.90;;;;;;5090512;28;20379;-51
2022/10/27 05:45:22;;;;;;;19.83;8.70;;;11.70;99.90;;;;;;5091177;28;20382;-55
2022/10/27 05:47:48;;;;;;;18.42;8.73;;;11.70;99.90;;;;;;5090820;28;20378;-52
2022/10/27 05:50:14;;;;;;;15.35;8.35;;;11.80;99.90;;;;;;5090775;28;20382;-52
2022/10/27 05:52:39;;;;;;;17.70;8.67;;;11.70;99.90;;;;;;5090706;28;20377;-51
2022/10/27 05:55:05;;;;;;;19.05;8.70;;;11.70;99.90;;;;;;5091098;28;20877;-52
2022/10/27 05:57:31;;;;;;;22.08;9.85;;;11.70;99.90;;;;;;5089786;28;20389;-52
2022/10/27 05:59:56;;;;;;;21.60;10.13;;;11.70;99.90;;;;;;5091379;28;20389;-52
2022/10/27 06:02:22;;;;;;;18.43;9.33;;;11.70;99.90;;;;;;5090340;28;20716;-51
2022/10/27 06:04:48;;;;;;;18.97;8.93;;;11.70;99.90;;;;;;5083095;28;20409;-51
2022/10/27 06:07:13;;;;;;;17.98;8.85;;;11.70;99.90;;;;;;5090518;28;20417;-51
2022/10/27 06:09:39;;;;;;;17.67;8.80;;;11.80;99.90;;;;;;5089909;28;20763;-52
2022/10/27 06:12:04;;;;;;;15.97;8.10;;;11.80;99.90;;;;;;5090152;28;20370;-51
2022/10/27 06:14:30;;;;;;;16.77;8.43;;;11.80;99.90;;;;;;5089327;28;20841;-53
2022/10/27 06:16:55;;;;;;;26.17;9.83;;;11.90;99.90;;;;;;5090397;28;20809;-52
2022/10/27 06:19:21;;;;;;;18.83;8.60;;;12.00;99.90;;;;;;5089942;28;20378;-55
2022/10/27 06:21:47;;;;;;;17.75;8.95;;;12.00;99.90;;;;;;5089098;28;20417;-52
2022/10/27 06:24:12;;;;;;;21.40;10.00;;;12.00;99.90;;;;;;5090226;28;20712;-51
2022/10/27 06:26:38;;;;;;;20.20;9.90;;;12.00;99.90;;;;;;5089296;28;20463;-52
2022/10/27 06:29:03;;;;;;;19.63;8.82;;;12.00;99.90;;;;;;5090010;28;20373;-51
2022/10/27 06:31:29;;;;;;;18.13;9.10;;;12.10;99.90;;;;;;5088822;28;20815;-51
2022/10/27 06:33:54;;;;;;;18.70;9.63;;;12.10;99.90;;;;;;5089881;28;20410;-51
2022/10/27 06:36:20;;;;;;;18.42;9.30;;;12.10;99.90;;;;;;5089071;28;20401;-55
2022/10/27 06:38:47;;;;;;;22.45;9.80;;;12.20;99.90;;;;;;5088780;28;20480;-52
2022/10/27 06:41:13;;;;;;;21.37;9.10;;;12.20;99.90;;;;;;5089560;28;20477;-51
2022/10/27 06:43:38;;;;;;;15.93;9.30;;;12.40;99.90;;;;;;5089311;28;20370;-52
2022/10/27 06:46:04;;;;;;;18.17;10.00;;;12.50;99.90;;;;;;5089581;28;20396;-52
2022/10/27 06:48:30;;;;;;;19.60;10.43;;;12.60;99.90;;;;;;5089456;28;20366;-51
2022/10/27 06:50:55;;;;;;;21.50;10.60;;;12.70;99.90;;;;;;5089740;28;20754;-52
2022/10/27 06:53:21;;;;;;;19.63;9.50;;;12.80;99.90;;;;;;5089019;28;20374;-52
2022/10/27 06:55:46;;;;;;;23.77;11.38;;;12.70;99.90;;;;;;5089368;28;20398;-51
2022/10/27 06:58:12;;;;;;;20.50;9.43;;;12.80;99.90;;;;;;5089507;28;20421;-52
2022/10/27 07:00:38;;;;;;;24.80;11.47;;;13.00;99.90;;;;;;5088459;28;20378;-52
2022/10/27 07:03:08;;;;;;;20.50;10.40;;;13.70;99.90;;;;;;5089293;28;20942;-52
2022/10/27 07:05:35;;;;;;;19.58;8.77;;;14.90;99.90;;;;;;5088575;28;20381;-53
2022/10/27 07:08:01;;;;;;;15.25;7.57;;;16.20;1.00;;;;;;5089415;28;20371;-53
2022/10/27 07:10:26;;;;;;;12.97;6.90;;;17.50;1.00;;;;;;5088215;28;20393;-52
2022/10/27 07:12:59;;;;;;;15.02;7.03;;;18.80;99.90;;;;;;5089399;28;21028;-53
2022/10/27 07:15:31;;;;;;;14.70;7.03;;;20.10;1.00;;;;;;5068820;28;20415;-53
2022/10/27 07:17:59;;;;;;;13.75;6.28;;;21.30;1.00;;;;;;5069279;28;20853;-53
2022/10/27 07:20:25;;;;;;;12.60;6.70;;;22.30;1.00;;;;;;5068635;28;20388;-53
2022/10/27 07:22:51;;;;;;;11.88;6.38;;;22.80;1.00;;;;;;5068577;28;20749;-53
2022/10/27 07:25:16;;;;;;;15.73;6.57;;;23.40;1.00;;;;;;5069371;28;20390;-53
2022/10/27 07:27:46;;;;;;;12.10;6.33;;;24.20;1.00;;;;;;5068587;28;20490;-53
2022/10/27 07:30:12;;;;;;;12.20;6.82;;;24.80;1.00;;;;;;5069586;28;20817;-53
2022/10/27 07:32:38;;;;;;;15.20;9.98;;;25.00;1.00;;;;;;5068279;28;20409;-53
2022/10/27 07:35:04;;;;;;;10.77;5.88;;;24.90;1.00;;;;;;5068596;28;20390;-53
2022/10/27 07:37:29;;;;;;;12.70;6.10;;;24.60;99.90;;;;;;5068213;28;20402;-53
2022/10/27 07:39:55;;;;;;;12.50;6.60;;;24.90;99.90;;;;;;5068954;28;20392;-53
2022/10/27 07:42:21;;;;;;;14.35;6.80;;;25.50;99.90;;;;;;5068355;28;20877;-54
2022/10/27 07:44:46;;;;;;;16.42;7.00;;;25.90;99.90;;;;;;5069256;28;20372;-53
2022/10/27 07:47:12;;;;;;;13.90;7.00;;;26.00;99.90;;;;;;5068803;28;20375;-54
2022/10/27 07:49:37;;;;;;;21.15;19.25;;;25.40;99.90;;;;;;5068638;28;20729;-53
2022/10/27 07:52:03;;;;;;;22.17;20.07;;;25.50;99.90;;;;;;5068681;28;20380;-54
2022/10/27 07:54:28;;;;;;;21.20;19.40;;;25.50;99.90;;;;;;5068597;28;20375;-53
2022/10/27 07:56:54;;;;;;;22.50;20.60;;;25.40;99.90;;;;;;5068427;28;20395;-53
2022/10/27 07:59:20;;;;;;;25.27;23.27;;;26.20;99.90;;;;;;5068698;28;20380;-53
2022/10/27 08:01:45;;;;;;;11.90;5.93;;;26.60;99.90;;;;;;5067975;28;20379;-53
2022/10/27 08:04:11;;;;;;;12.57;5.60;;;26.70;99.90;;;;;;5068581;28;20392;-54
2022/10/27 08:06:36;;;;;;;11.95;5.80;;;26.50;99.90;;;;;;5067813;28;20406;-54
2022/10/27 08:09:02;;;;;;;10.10;5.90;;;26.50;99.90;;;;;;5068336;28;20407;-53
2022/10/27 08:11:28;;;;;;;15.07;6.30;;;26.40;99.90;;;;;;5070520;28;20383;-53
2022/10/27 08:13:53;;;;;;;15.55;5.93;;;26.70;99.90;;;;;;5080144;28;20386;-53
2022/10/27 08:16:19;;;;;;;14.65;5.88;;;26.70;99.90;;;;;;5092484;28;20511;-54
2022/10/27 08:18:45;;;;;;;11.13;5.60;;;26.40;99.90;;;;;;5092168;28;20393;-55
2022/10/27 08:21:10;;;;;;;12.00;5.28;;;25.90;99.90;;;;;;5092773;28;20390;-53
2022/10/27 08:23:37;;;;;;;13.00;5.55;;;26.40;99.90;;;;;;5091707;28;20457;-53
2022/10/27 08:26:02;;;;;;;16.73;5.50;;;26.30;99.90;;;;;;5092740;28;20393;-53
2022/10/27 08:28:28;;;;;;;12.50;5.75;;;26.10;99.90;;;;;;5092059;28;20386;-53
2022/10/27 08:30:54;;;;;;;17.88;5.80;;;26.30;99.90;;;;;;5092210;28;20370;-53
2022/10/27 08:33:21;;;;;;;16.58;5.70;;;26.50;99.90;;;;;;5074404;28;20403;-54
2022/10/27 08:35:47;;;;;;;12.40;5.30;;;26.90;99.90;;;;;;5093082;28;20555;-53
2022/10/27 08:38:15;;;;;;;11.43;5.10;;;27.00;99.90;;;;;;5092138;28;20859;-53
2022/10/27 08:41:12;;;;;;;16.63;5.50;;;27.00;99.90;;;;;;5091588;28;20382;-53
2022/10/27 08:44:14;;;;;;;14.52;5.50;;;27.10;99.90;;;;;;5091593;28;20370;-53
2022/10/27 08:46:58;;;;;;;11.85;4.65;;;27.40;99.90;;;;;;5039161;28;20386;-54
2022/10/27 08:49:37;;;;;;;12.88;4.60;;;28.10;99.90;;;;;;5091764;28;20837;-54
2022/10/27 08:52:28;;;;;;;14.02;5.03;;;28.10;99.90;;;;;;5092545;28;20402;-53
2022/10/27 08:55:00;;;;;;;9.27;4.50;;;28.10;99.90;;;;;;5092295;28;20382;-53
2022/10/27 08:57:30;;;;;;;15.82;4.78;;;27.80;99.90;;;;;;5091835;28;20440;-57
2022/10/27 08:59:56;;;;;;;10.50;4.60;;;28.10;99.90;;;;;;5092412;28;20457;-54
2022/10/27 09:02:47;;;;;;;11.93;4.97;;;28.80;99.90;;;;;;5091445;28;20420;-57
2022/10/27 09:05:53;;;;;;;11.75;5.80;;;29.00;99.90;;;;;;5073875;28;20398;-53
2022/10/27 09:08:30;;;;;;;12.10;5.32;;;28.40;99.90;;;;;;5091880;28;20827;-55
2022/10/27 09:11:06;;;;;;;13.75;4.43;;;28.00;99.90;;;;;;5092103;28;20469;-54
2022/10/27 09:13:45;;;;;;;11.50;4.30;;;27.30;99.90;;;;;;5090982;28;20407;-54
2022/10/27 09:16:15;;;;;;;11.63;4.88;;;27.00;99.90;;;;;;5091618;28;20435;-53
2022/10/27 09:18:49;;;;;;;13.23;4.83;;;26.80;99.90;;;;;;5091137;28;20386;-53
2022/10/27 09:21:20;;;;;;;11.55;5.13;;;26.60;99.90;;;;;;5091570;28;20454;-53
2022/10/27 09:24:11;;;;;;;13.63;4.70;;;26.70;99.90;;;;;;5090828;28;20377;-54
2022/10/27 09:26:37;;;;;;;9.40;4.60;;;27.50;99.90;;;;;;5091103;28;20378;-54
2022/10/27 09:29:13;;;;;;;18.92;4.55;;;28.10;99.90;;;;;;5091534;28;20378;-54
2022/10/27 09:32:00;;;;;;;9.87;4.70;;;29.10;99.90;;;;;;5090571;28;20407;-54
2022/10/27 09:34:39;;;;;;;12.90;5.15;;;29.20;99.90;;;;;;5090932;28;20420;-54
2022/10/27 09:37:14;;;;;;;17.60;15.77;;;29.30;99.90;;;;;;5073206;28;20433;-54
2022/10/27 09:39:45;;;;;;;11.40;5.70;;;29.70;99.90;;;;;;5090312;28;20794;-54
2022/10/27 09:42:10;;;;;;;12.82;8.80;;;30.10;99.90;;;;;;5091333;28;20835;-54
2022/10/27 09:44:36;;;;;;;12.10;5.03;;;30.80;99.90;;;;;;5090839;28;20389;-54
2022/10/27 09:47:02;;;;;;;11.00;4.70;;;30.60;99.90;;;;;;5090951;28;20390;-54
2022/10/27 09:49:44;;;;;;;13.23;5.30;;;30.20;99.90;;;;;;5090434;28;20836;-54
2022/10/27 09:52:21;;;;;;;11.80;4.90;;;29.50;99.90;;;;;;5091128;28;20930;-54
2022/10/27 09:54:54;;;;;;;10.10;4.40;;;29.00;99.90;;;;;;5090708;28;20386;-55
2022/10/27 09:57:24;;;;;;;10.63;5.30;;;29.80;99.90;;;;;;5090982;28;20407;-54
2022/10/27 09:59:55;;;;;;;10.10;4.40;;;30.20;99.90;;;;;;5090262;28;20414;-54
2022/10/27 10:02:48;;;;;;;9.30;5.13;;;30.40;99.90;;;;;;5091469;28;20414;-54
2022/10/27 10:05:21;;;;;;;9.55;4.00;;;30.60;99.90;;;;;;5089523;28;20390;-54
2022/10/27 10:07:46;;;;;;;9.93;4.20;;;30.00;99.90;;;;;;5090353;28;20374;-54
2022/10/27 10:10:23;;;;;;;11.45;4.25;;;29.30;99.90;;;;;;5072948;28;20739;-54
2022/10/27 10:13:15;;;;;;;9.88;4.32;;;29.10;99.90;;;;;;5090012;28;20929;-54
2022/10/27 10:15:47;;;;;;;10.50;4.07;;;29.50;99.90;;;;;;5065454;28;20455;-55
2022/10/27 10:18:25;;;;;;;8.80;4.00;;;29.70;99.90;;;;;;5052599;28;20484;-54
2022/10/27 10:21:07;;;;;;;12.45;4.50;;;30.10;99.90;;;;;;5069840;28;20995;-54
2022/10/27 10:23:36;;;;;;;9.60;4.00;;;30.10;99.90;;;;;;5070046;28;20717;-55
2022/10/27 10:26:05;;;;;;;9.63;3.88;;;30.00;99.90;;;;;;5052050;28;20415;-54
2022/10/27 10:28:36;;;;;;;11.10;4.53;;;30.10;99.90;;;;;;5069409;28;20379;-55
2022/10/27 10:31:05;;;;;;;12.17;4.73;;;30.50;99.90;;;;;;5070892;28;20475;-55
2022/10/27 10:33:34;;;;;;;13.00;4.55;;;30.40;99.90;;;;;;5069595;28;20414;-54
2022/10/27 10:36:24;;;;;;;11.67;3.93;;;30.20;99.90;;;;;;5070419;28;20914;-55
2022/10/27 10:38:52;;;;;;;12.40;4.15;;;30.60;99.90;;;;;;5070092;28;20413;-54
2022/10/27 10:41:21;;;;;;;12.88;4.25;;;30.50;99.90;;;;;;5070099;28;20528;-55
2022/10/27 10:44:11;;;;;;;10.95;4.15;;;30.50;99.90;;;;;;5069182;28;20376;-55
2022/10/27 10:46:54;;;;;;;11.25;4.10;;;30.40;99.90;;;;;;5051265;28;20463;-54
2022/10/27 10:49:26;;;;;;;10.23;4.20;;;30.30;99.90;;;;;;5070267;28;20468;-54
2022/10/27 10:51:55;;;;;;;13.75;4.53;;;29.70;99.90;;;;;;5070436;28;20405;-54
2022/10/27 10:54:34;;;;;;;11.75;4.00;;;29.30;99.90;;;;;;5070152;28;20836;-54
2022/10/27 10:57:01;;;;;;;11.18;3.50;;;29.00;99.90;;;;;;5070056;28;20460;-54
2022/10/27 10:59:29;;;;;;;12.02;4.00;;;28.30;99.90;;;;;;5069580;28;20529;-57
2022/10/27 11:02:13;;;;;;;11.88;4.50;;;28.20;99.90;;;;;;5069526;28;20440;-55
2022/10/27 11:04:43;;;;;;;12.47;4.30;;;28.30;99.90;;;;;;5068408;28;20742;-54
2022/10/27 11:07:31;;;;;;;11.55;4.32;;;28.50;99.90;;;;;;5070072;28;20386;-54
2022/10/27 11:10:02;;;;;;;9.50;3.50;;;28.40;99.90;;;;;;5069783;28;20387;-54
2022/10/27 11:12:59;;;;;;;10.10;3.60;;;27.80;99.90;;;;;;5051393;28;20467;-57
2022/10/27 11:15:59;;;;;;;13.35;4.30;;;27.10;99.90;;;;;;5068887;28;20399;-55
2022/10/27 11:18:27;;;;;;;13.93;5.20;;;26.60;99.90;;;;;;5069596;28;20430;-57
2022/10/27 11:21:01;;;;;;;10.80;4.60;;;25.80;99.90;;;;;;5069691;28;20391;-53
2022/10/27 11:23:40;;;;;;;10.70;4.20;;;25.50;99.90;;;;;;5069516;28;20383;-57
2022/10/27 11:26:07;;;;;;;14.20;4.38;;;25.20;99.90;;;;;;5069936;28;20379;-54
2022/10/27 11:28:49;;;;;;;11.27;3.95;;;25.20;99.90;;;;;;5069331;28;20368;-54
2022/10/27 11:31:21;;;;;;;8.65;3.70;;;25.40;99.90;;;;;;5069499;28;20423;-54
2022/10/27 11:34:15;;;;;;;10.57;3.42;;;25.40;99.90;;;;;;5068625;28;20403;-54
2022/10/27 11:36:46;;;;;;;8.57;3.63;;;25.30;99.90;;;;;;5069097;28;20399;-54
2022/10/27 11:39:20;;;;;;;12.70;4.00;;;25.30;99.90;;;;;;5069202;28;20376;-54
2022/10/27 11:41:53;;;;;;;11.97;3.80;;;25.30;99.90;;;;;;5068696;28;20453;-54
2022/10/27 11:44:46;;;;;;;10.68;4.00;;;25.50;99.90;;;;;;5070272;28;20376;-54
2022/10/27 11:47:23;;;;;;;11.77;4.10;;;25.40;99.90;;;;;;5073753;28;20890;-56
2022/10/27 11:49:58;;;;;;;9.23;3.60;;;25.00;99.90;;;;;;5072987;28;20470;-54
2022/10/27 11:52:30;;;;;;;16.23;4.30;;;24.90;99.90;;;;;;5073681;28;20557;-54
2022/10/27 11:54:57;;;;;;;7.88;3.05;;;24.70;99.90;;;;;;5073539;28;20459;-54
2022/10/27 11:57:47;;;;;;;13.17;3.40;;;24.70;99.90;;;;;;5073250;28;20404;-54
2022/10/27 12:00:32;;;;;;;12.50;3.47;;;24.70;99.90;;;;;;5073226;28;20419;-54
2022/10/27 12:03:16;;;;;;;10.40;2.92;;;24.70;99.90;;;;;;5072821;28;20415;-54
2022/10/27 12:06:04;;;;;;;12.13;3.50;;;24.80;99.90;;;;;;5072484;28;20415;-54
2022/10/27 12:08:48;;;;;;;8.57;2.90;;;24.80;99.90;;;;;;5072424;28;20375;-54
2022/10/27 12:11:28;;;;;;;11.38;3.25;;;24.90;99.90;;;;;;5072726;28;20379;-54
2022/10/27 12:14:17;;;;;;;13.88;3.38;;;24.80;99.90;;;;;;5080496;28;20381;-55
2022/10/27 12:16:50;;;;;;;10.73;3.67;;;24.70;99.90;;;;;;5092893;28;20776;-54
2022/10/27 12:19:26;;;;;;;9.02;3.40;;;24.70;99.90;;;;;;5092903;28;20414;-54
2022/10/27 12:22:01;;;;;;;11.30;3.28;;;25.00;99.90;;;;;;5092250;28;20362;-54
2022/10/27 12:25:02;;;;;;;10.73;3.38;;;25.20;99.90;;;;;;5092211;28;20393;-57
2022/10/27 12:27:37;;;;;;;9.65;3.72;;;25.10;99.90;;;;;;5092195;28;20382;-57
2022/10/27 12:30:11;;;;;;;11.10;3.67;;;25.20;99.90;;;;;;5092924;28;20465;-54
2022/10/27 12:32:57;;;;;;;10.30;3.60;;;25.20;99.90;;;;;;5091850;28;20934;-54
2022/10/27 12:35:29;;;;;;;10.97;3.90;;;25.30;99.90;;;;;;5092883;28;20378;-54
2022/10/27 12:38:09;;;;;;;9.48;4.18;;;25.30;99.90;;;;;;5092932;28;20908;-54
2022/10/27 12:40:54;;;;;;;10.00;3.38;;;25.40;99.90;;;;;;5091900;28;20405;-54
2022/10/27 12:43:45;;;;;;;11.77;4.10;;;25.40;99.90;;;;;;5092525;28;20715;-54
2022/10/27 12:46:19;;;;;;;12.80;4.10;;;25.30;99.90;;;;;;5092239;28;20382;-54
2022/10/27 12:48:58;;;;;;;13.70;3.30;;;25.30;99.90;;;;;;5092098;28;20379;-54
2022/10/27 12:52:18;;;;;;;9.65;3.70;;;25.60;99.90;;;;;;5092233;28;20370;-54
2022/10/27 12:55:01;;;;;;;12.60;3.60;;;25.60;99.90;;;;;;4989133;28;20581;-55
2022/10/27 12:57:39;;;;;;;11.52;3.22;;;25.50;99.90;;;;;;5090967;28;20465;-58
2022/10/27 13:00:22;;;;;;;9.30;3.50;;;25.40;99.90;;;;;;5091525;28;20395;-54